Time;durP1;ratioP1;P1;durP2;ratioP2;P2;SDS_P1;SDS_P2;PMS_P1;PMS_P2;Temp;Humidity;BMP_temperature;BMP_pressure;BME280_temperature;BME280_humidity;BME280_pressure;Samples;Min_cycle;Max_cycle;Signal;HPM_P1;HPM_P2
2023/07/13 00:01:28;;;;;;;10.48;2.90;;;;;;;;;;5072165;28;20044;-83
2023/07/13 00:03:55;;;;;;;15.48;2.90;;;;;;;;;;5097290;28;20066;-86
2023/07/13 00:06:22;;;;;;;11.70;3.17;;;;;;;;;;5067621;28;20424;-87
2023/07/13 00:08:48;;;;;;;17.98;3.83;;;;;;;;;;5069097;28;20514;-80
2023/07/13 00:11:15;;;;;;;11.63;3.08;;;;;;;;;;5084812;28;20060;-87
2023/07/13 00:13:42;;;;;;;9.85;2.50;;;;;;;;;;5071512;28;20135;-89
2023/07/13 00:16:08;;;;;;;10.75;2.83;;;;;;;;;;5073515;28;20940;-91
2023/07/13 00:18:34;;;;;;;13.90;2.78;;;;;;;;;;5072283;28;20515;-87
2023/07/13 00:21:04;;;;;;;16.88;3.08;;;;;;;;;;5073872;28;20047;-90
2023/07/13 00:23:34;;;;;;;9.35;3.13;;;;;;;;;;5089011;28;20047;-93
2023/07/13 00:26:01;;;;;;;12.48;3.28;;;;;;;;;;5067424;28;20490;-87
2023/07/13 00:28:27;;;;;;;10.70;2.97;;;;;;;;;;5085661;28;20047;-87
2023/07/13 00:30:54;;;;;;;16.25;3.70;;;;;;;;;;5080155;28;20040;-91
2023/07/13 00:33:20;;;;;;;12.90;3.00;;;;;;;;;;5080914;28;20119;-92
2023/07/13 00:35:46;;;;;;;16.10;3.30;;;;;;;;;;5068879;28;20137;-83
2023/07/13 00:38:12;;;;;;;12.68;2.85;;;;;;;;;;5060386;28;20055;-86
2023/07/13 00:40:38;;;;;;;13.00;3.20;;;;;;;;;;5053337;28;20072;-90
2023/07/13 00:43:09;;;;;;;12.98;3.13;;;;;;;;;;5069969;28;20041;-86
2023/07/13 00:45:45;;;;;;;10.85;2.78;;;;;;;;;;5089080;28;20093;-92
2023/07/13 00:48:12;;;;;;;16.55;3.30;;;;;;;;;;5105826;27;20172;-83
2023/07/13 00:50:38;;;;;;;15.95;3.60;;;;;;;;;;5077724;28;20040;-83
2023/07/13 00:53:04;;;;;;;12.15;3.10;;;;;;;;;;5070729;28;20047;-89
2023/07/13 00:55:30;;;;;;;12.75;3.20;;;;;;;;;;5068320;28;20036;-90
2023/07/13 00:57:57;;;;;;;18.92;3.90;;;;;;;;;;5072788;28;20031;-78
2023/07/13 01:00:23;;;;;;;15.13;3.67;;;;;;;;;;5075542;28;20040;-86
2023/07/13 01:02:50;;;;;;;13.75;3.42;;;;;;;;;;5081627;28;20609;-85
2023/07/13 01:05:19;;;;;;;14.75;3.53;;;;;;;;;;5090694;28;20159;-91
2023/07/13 01:07:45;;;;;;;18.88;3.75;;;;;;;;;;5071663;28;20070;-91
2023/07/13 01:10:12;;;;;;;14.23;3.20;;;;;;;;;;5077575;28;20071;-84
2023/07/13 01:12:38;;;;;;;18.67;3.60;;;;;;;;;;5094114;28;20036;-92
2023/07/13 01:15:06;;;;;;;15.45;3.40;;;;;;;;;;5074659;28;20097;-81
2023/07/13 01:17:35;;;;;;;14.90;3.70;;;;;;;;;;5111336;28;20384;-86
2023/07/13 01:20:02;;;;;;;16.83;3.75;;;;;;;;;;5092188;28;20121;-80
2023/07/13 01:22:28;;;;;;;19.13;3.60;;;;;;;;;;5095570;28;20050;-89
2023/07/13 01:24:55;;;;;;;17.10;3.90;;;;;;;;;;5079107;28;20048;-89
2023/07/13 01:27:24;;;;;;;15.20;3.50;;;;;;;;;;5070438;28;20048;-91
2023/07/13 01:29:51;;;;;;;11.70;3.15;;;;;;;;;;5068890;28;20192;-91
2023/07/13 01:32:22;;;;;;;19.20;3.72;;;;;;;;;;5063606;28;20105;-92
2023/07/13 01:34:48;;;;;;;14.30;3.40;;;;;;;;;;5073494;28;20126;-89
2023/07/13 01:37:14;;;;;;;16.45;3.33;;;;;;;;;;5079195;28;20052;-83
2023/07/13 01:39:41;;;;;;;15.98;3.75;;;;;;;;;;5074696;28;20157;-92
2023/07/13 01:42:07;;;;;;;12.20;3.38;;;;;;;;;;5076505;28;20044;-78
2023/07/13 01:44:33;;;;;;;17.23;3.95;;;;;;;;;;5090513;28;20077;-90
2023/07/13 01:46:59;;;;;;;16.90;3.58;;;;;;;;;;5074824;28;20044;-89
2023/07/13 01:49:25;;;;;;;16.08;3.63;;;;;;;;;;5071201;28;20047;-91
2023/07/13 01:51:51;;;;;;;14.52;3.72;;;;;;;;;;5085497;28;20107;-85
2023/07/13 01:54:17;;;;;;;14.45;3.78;;;;;;;;;;5073327;28;20473;-85
2023/07/13 01:56:43;;;;;;;17.50;3.85;;;;;;;;;;5068440;28;20035;-88
2023/07/13 01:59:10;;;;;;;15.70;3.40;;;;;;;;;;5090496;28;20099;-90
2023/07/13 02:01:36;;;;;;;16.15;3.72;;;;;;;;;;5091465;28;20061;-90
2023/07/13 02:04:02;;;;;;;18.40;4.05;;;;;;;;;;5073994;28;20143;-90
2023/07/13 02:06:28;;;;;;;17.88;3.42;;;;;;;;;;5071051;28;20075;-84
2023/07/13 02:08:54;;;;;;;14.00;3.60;;;;;;;;;;5060194;28;20237;-87
2023/07/13 02:11:21;;;;;;;15.23;3.47;;;;;;;;;;5074090;28;20112;-76
2023/07/13 02:13:47;;;;;;;16.02;4.45;;;;;;;;;;5092645;28;20039;-92
2023/07/13 02:16:13;;;;;;;20.75;3.47;;;;;;;;;;5079383;28;20043;-93
2023/07/13 02:18:39;;;;;;;13.10;3.10;;;;;;;;;;5073110;28;20044;-93
2023/07/13 02:21:05;;;;;;;12.75;4.00;;;;;;;;;;5056804;28;20044;-85
2023/07/13 02:23:31;;;;;;;12.50;2.95;;;;;;;;;;5105902;27;20128;-76
2023/07/13 02:25:57;;;;;;;14.38;3.50;;;;;;;;;;5059993;28;20380;-89
2023/07/13 02:28:23;;;;;;;10.85;3.17;;;;;;;;;;5088090;28;20082;-87
2023/07/13 02:30:50;;;;;;;14.35;3.67;;;;;;;;;;5098429;28;20064;-84
2023/07/13 02:33:16;;;;;;;14.48;3.45;;;;;;;;;;5074034;28;20055;-92
2023/07/13 02:35:42;;;;;;;14.57;3.63;;;;;;;;;;5072032;28;20048;-89
2023/07/13 02:38:08;;;;;;;12.57;3.40;;;;;;;;;;5076709;28;20085;-91
2023/07/13 02:40:35;;;;;;;13.15;3.40;;;;;;;;;;5078679;28;20051;-86
2023/07/13 02:43:01;;;;;;;12.60;3.20;;;;;;;;;;5051288;28;20406;-88
2023/07/13 02:45:28;;;;;;;14.82;3.50;;;;;;;;;;5076083;28;20070;-86
2023/07/13 02:47:54;;;;;;;18.27;3.90;;;;;;;;;;5080106;28;20050;-90
2023/07/13 02:50:20;;;;;;;17.25;3.67;;;;;;;;;;5101326;28;20105;-80
2023/07/13 02:52:46;;;;;;;12.27;3.47;;;;;;;;;;5070715;28;20044;-79
2023/07/13 02:55:12;;;;;;;14.55;3.50;;;;;;;;;;5084149;28;20152;-90
2023/07/13 02:57:38;;;;;;;18.50;4.20;;;;;;;;;;5081920;28;20091;-90
2023/07/13 03:00:05;;;;;;;16.02;4.10;;;;;;;;;;5063225;28;20082;-91
2023/07/13 03:02:32;;;;;;;17.92;3.95;;;;;;;;;;5071335;28;20052;-86
2023/07/13 03:04:58;;;;;;;15.02;3.80;;;;;;;;;;5076339;28;20538;-86
2023/07/13 03:07:25;;;;;;;15.15;3.97;;;;;;;;;;5069595;28;20042;-88
2023/07/13 03:09:55;;;;;;;14.38;3.83;;;;;;;;;;5071746;28;20575;-86
2023/07/13 03:12:21;;;;;;;16.67;4.13;;;;;;;;;;5073889;28;20048;-88
2023/07/13 03:14:47;;;;;;;14.60;4.20;;;;;;;;;;5078251;28;20067;-81
2023/07/13 03:17:13;;;;;;;16.25;4.22;;;;;;;;;;5079226;28;20480;-88
2023/07/13 03:19:39;;;;;;;20.90;5.47;;;;;;;;;;5074084;28;20048;-89
2023/07/13 03:22:05;;;;;;;14.85;4.40;;;;;;;;;;5073810;28;20059;-83
2023/07/13 03:24:33;;;;;;;18.85;4.47;;;;;;;;;;5078716;28;20048;-90
2023/07/13 03:26:59;;;;;;;19.90;4.93;;;;;;;;;;5068084;28;20506;-85
2023/07/13 03:29:25;;;;;;;21.85;4.70;;;;;;;;;;5071959;28;20051;-80
2023/07/13 03:31:51;;;;;;;16.35;4.68;;;;;;;;;;5068702;28;20032;-86
2023/07/13 03:34:17;;;;;;;19.10;4.25;;;;;;;;;;5083830;28;20552;-86
2023/07/13 03:36:43;;;;;;;18.35;4.25;;;;;;;;;;5074074;28;20044;-82
2023/07/13 03:39:09;;;;;;;14.73;3.83;;;;;;;;;;5064795;28;20047;-89
2023/07/13 03:41:36;;;;;;;16.00;4.38;;;;;;;;;;5076366;28;20040;-77
2023/07/13 03:44:02;;;;;;;13.23;3.80;;;;;;;;;;5105843;27;20518;-80
2023/07/13 03:46:28;;;;;;;16.48;4.05;;;;;;;;;;5064347;28;20067;-88
2023/07/13 03:48:54;;;;;;;16.33;3.95;;;;;;;;;;5071186;28;20044;-88
2023/07/13 03:51:20;;;;;;;18.05;4.75;;;;;;;;;;5078195;28;20401;-81
2023/07/13 03:53:47;;;;;;;20.52;4.30;;;;;;;;;;5070647;28;20051;-89
2023/07/13 03:56:15;;;;;;;17.90;4.32;;;;;;;;;;5080783;28;20099;-85
2023/07/13 03:58:42;;;;;;;18.90;4.30;;;;;;;;;;5067797;28;20127;-86
2023/07/13 04:01:09;;;;;;;17.67;4.10;;;;;;;;;;5062006;28;20295;-90
2023/07/13 04:03:38;;;;;;;16.50;4.43;;;;;;;;;;5067179;28;20881;-87
2023/07/13 04:06:05;;;;;;;17.17;4.05;;;;;;;;;;5062591;28;20523;-81
2023/07/13 04:08:33;;;;;;;16.88;4.18;;;;;;;;;;5083863;28;20044;-87
2023/07/13 04:10:59;;;;;;;15.60;3.90;;;;;;;;;;5077929;28;20494;-87
2023/07/13 04:13:25;;;;;;;15.30;3.95;;;;;;;;;;5063889;28;20055;-88
2023/07/13 04:15:51;;;;;;;19.35;4.38;;;;;;;;;;5070262;28;20067;-90
2023/07/13 04:18:19;;;;;;;16.73;4.35;;;;;;;;;;5061141;28;20048;-84
2023/07/13 04:20:45;;;;;;;21.40;4.05;;;;;;;;;;5086542;28;20055;-90
2023/07/13 04:23:11;;;;;;;19.88;4.00;;;;;;;;;;5065614;28;20056;-90
2023/07/13 04:25:37;;;;;;;17.88;3.83;;;;;;;;;;5074087;28;20078;-84
2023/07/13 04:28:04;;;;;;;24.67;4.55;;;;;;;;;;5054293;28;20048;-84
2023/07/13 04:30:30;;;;;;;17.95;4.35;;;;;;;;;;5077970;28;20028;-88
2023/07/13 04:32:56;;;;;;;16.92;4.30;;;;;;;;;;5075649;28;20032;-88
2023/07/13 04:35:22;;;;;;;17.17;4.35;;;;;;;;;;5063720;28;20498;-87
2023/07/13 04:37:50;;;;;;;18.23;4.40;;;;;;;;;;5065612;28;20048;-90
2023/07/13 04:40:17;;;;;;;17.13;4.33;;;;;;;;;;5062139;28;20612;-86
2023/07/13 04:42:43;;;;;;;18.58;4.65;;;;;;;;;;5065849;28;20043;-88
2023/07/13 04:45:09;;;;;;;13.45;3.90;;;;;;;;;;5077077;28;20056;-89
2023/07/13 04:47:35;;;;;;;14.25;3.95;;;;;;;;;;5074504;28;20828;-82
2023/07/13 04:50:01;;;;;;;18.08;4.25;;;;;;;;;;5062174;28;20407;-87
2023/07/13 04:52:27;;;;;;;13.00;3.92;;;;;;;;;;5066169;28;20178;-89
2023/07/13 04:54:53;;;;;;;19.05;3.83;;;;;;;;;;5073618;28;20601;-84
2023/07/13 04:57:19;;;;;;;14.48;4.30;;;;;;;;;;5068393;28;20576;-90
2023/07/13 04:59:45;;;;;;;14.82;3.83;;;;;;;;;;5071115;28;20079;-89
2023/07/13 05:02:11;;;;;;;11.95;3.67;;;;;;;;;;5065333;28;20043;-90
2023/07/13 05:04:37;;;;;;;13.82;4.28;;;;;;;;;;5050567;28;20612;-90
2023/07/13 05:07:03;;;;;;;13.43;4.00;;;;;;;;;;5061610;28;20055;-83
2023/07/13 05:09:29;;;;;;;15.18;3.92;;;;;;;;;;5043791;28;20093;-82
2023/07/13 05:11:55;;;;;;;17.45;3.97;;;;;;;;;;5072382;28;20450;-88
2023/07/13 05:14:21;;;;;;;18.95;4.50;;;;;;;;;;5103867;28;20043;-90
2023/07/13 05:16:48;;;;;;;17.88;4.40;;;;;;;;;;5066430;28;20048;-90
2023/07/13 05:19:14;;;;;;;18.85;4.60;;;;;;;;;;5071739;28;20464;-91
2023/07/13 05:21:41;;;;;;;16.00;3.90;;;;;;;;;;5083792;28;20475;-77
2023/07/13 05:24:10;;;;;;;15.10;3.80;;;;;;;;;;5087579;28;20088;-75
2023/07/13 05:26:36;;;;;;;17.98;4.80;;;;;;;;;;5068310;28;20151;-88
2023/07/13 05:29:02;;;;;;;14.10;4.40;;;;;;;;;;5065995;28;20453;-81
2023/07/13 05:31:28;;;;;;;15.80;4.07;;;;;;;;;;5059506;28;20090;-83
2023/07/13 05:33:54;;;;;;;17.45;4.07;;;;;;;;;;5090226;28;20309;-91
2023/07/13 05:36:20;;;;;;;21.65;4.80;;;;;;;;;;5091802;28;20048;-85
2023/07/13 05:38:46;;;;;;;14.60;4.00;;;;;;;;;;5083336;28;20044;-84
2023/07/13 05:41:12;;;;;;;17.88;4.50;;;;;;;;;;5067464;28;20059;-89
2023/07/13 05:43:38;;;;;;;15.55;4.00;;;;;;;;;;5069884;28;20111;-83
2023/07/13 05:46:04;;;;;;;16.15;4.05;;;;;;;;;;5087748;28;20490;-79
2023/07/13 05:48:30;;;;;;;15.40;4.10;;;;;;;;;;5067499;28;20080;-88
2023/07/13 05:50:56;;;;;;;16.63;4.32;;;;;;;;;;5071720;28;20068;-87
2023/07/13 05:53:22;;;;;;;16.40;4.13;;;;;;;;;;5063244;28;20051;-88
2023/07/13 05:55:50;;;;;;;16.67;4.03;;;;;;;;;;5092511;28;20028;-89
2023/07/13 05:58:17;;;;;;;16.10;3.88;;;;;;;;;;5088891;28;20047;-77
2023/07/13 06:00:43;;;;;;;14.95;3.92;;;;;;;;;;5092306;28;20495;-83
2023/07/13 06:03:09;;;;;;;17.45;4.43;;;;;;;;;;5084010;28;20549;-82
2023/07/13 06:05:37;;;;;;;17.65;4.10;;;;;;;;;;5072314;28;20632;-87
2023/07/13 06:08:03;;;;;;;16.13;4.10;;;;;;;;;;5080408;28;20051;-84
2023/07/13 06:10:30;;;;;;;15.38;4.45;;;;;;;;;;5068251;28;20107;-84
2023/07/13 06:12:56;;;;;;;11.30;4.03;;;;;;;;;;5076781;28;20043;-80
2023/07/13 06:15:22;;;;;;;14.25;3.72;;;;;;;;;;5090856;28;20119;-81
2023/07/13 06:17:48;;;;;;;11.65;3.90;;;;;;;;;;5085200;28;20513;-87
2023/07/13 06:20:14;;;;;;;12.18;3.75;;;;;;;;;;5074546;28;20119;-82
2023/07/13 06:22:40;;;;;;;16.52;3.63;;;;;;;;;;5066928;28;20093;-90
2023/07/13 06:25:06;;;;;;;16.38;3.55;;;;;;;;;;5063354;28;20130;-89
2023/07/13 06:27:32;;;;;;;17.63;3.90;;;;;;;;;;5090795;28;20100;-84
2023/07/13 06:29:58;;;;;;;11.35;3.13;;;;;;;;;;5089724;28;20051;-93
2023/07/13 06:32:24;;;;;;;15.65;3.70;;;;;;;;;;5089192;28;20035;-93
2023/07/13 06:34:51;;;;;;;13.18;3.47;;;;;;;;;;5105927;28;20040;-94
2023/07/13 06:37:17;;;;;;;12.57;3.03;;;;;;;;;;5117108;28;20055;-94
2023/07/13 06:39:43;;;;;;;14.13;3.33;;;;;;;;;;5089989;28;20036;-80
2023/07/13 06:42:10;;;;;;;13.38;3.13;;;;;;;;;;5081427;28;20137;-93
2023/07/13 06:44:36;;;;;;;10.02;2.60;;;;;;;;;;5067039;28;20044;-83
2023/07/13 06:47:02;;;;;;;12.20;3.05;;;;;;;;;;5076224;28;20122;-90
2023/07/13 06:49:28;;;;;;;10.43;2.63;;;;;;;;;;5091954;28;20043;-93
2023/07/13 06:51:54;;;;;;;12.88;3.00;;;;;;;;;;5106942;28;20170;-90
2023/07/13 06:54:20;;;;;;;12.30;2.80;;;;;;;;;;5086158;28;20589;-89
2023/07/13 06:56:47;;;;;;;12.07;2.50;;;;;;;;;;5080754;28;20732;-79
2023/07/13 06:59:13;;;;;;;15.60;2.65;;;;;;;;;;5073412;28;20039;-90
2023/07/13 07:01:39;;;;;;;11.57;2.88;;;;;;;;;;5094051;28;20039;-90
2023/07/13 07:04:05;;;;;;;19.70;3.95;;;;;;;;;;5059060;28;20094;-86
2023/07/13 07:06:31;;;;;;;10.45;2.97;;;;;;;;;;5070008;28;20782;-92
2023/07/13 07:08:57;;;;;;;16.88;3.00;;;;;;;;;;5085225;28;20651;-90
2023/07/13 07:11:25;;;;;;;9.75;3.25;;;;;;;;;;5094194;28;20051;-80
2023/07/13 07:13:51;;;;;;;10.35;2.65;;;;;;;;;;5110069;28;20085;-91
2023/07/13 07:16:18;;;;;;;9.63;2.88;;;;;;;;;;5086457;28;20051;-91
2023/07/13 07:18:44;;;;;;;13.38;2.97;;;;;;;;;;5086910;28;20079;-80
2023/07/13 07:21:10;;;;;;;13.25;2.28;;;;;;;;;;5112557;28;20103;-86
2023/07/13 07:23:36;;;;;;;7.70;1.95;;;;;;;;;;5088153;28;20028;-82
2023/07/13 07:26:03;;;;;;;9.82;2.45;;;;;;;;;;5093116;28;20541;-78
2023/07/13 07:28:29;;;;;;;9.55;2.10;;;;;;;;;;5064802;28;20058;-89
2023/07/13 07:30:56;;;;;;;5.90;2.05;;;;;;;;;;5062550;28;20052;-84
2023/07/13 07:33:22;;;;;;;9.35;2.00;;;;;;;;;;5102739;28;20050;-79
2023/07/13 07:35:48;;;;;;;6.75;1.75;;;;;;;;;;5083748;28;20039;-92
2023/07/13 07:38:15;;;;;;;6.65;1.90;;;;;;;;;;5079379;28;20079;-81
2023/07/13 07:40:41;;;;;;;7.05;1.83;;;;;;;;;;5083510;28;20487;-87
2023/07/13 07:43:08;;;;;;;8.55;2.08;;;;;;;;;;5091677;28;20036;-81
2023/07/13 07:45:34;;;;;;;8.15;2.10;;;;;;;;;;5092652;28;20430;-92
2023/07/13 07:48:00;;;;;;;8.77;2.50;;;;;;;;;;5087783;28;20046;-88
2023/07/13 07:50:27;;;;;;;6.47;2.47;;;;;;;;;;5084402;28;20052;-88
2023/07/13 07:52:53;;;;;;;9.82;2.45;;;;;;;;;;5102612;28;20105;-85
2023/07/13 07:55:19;;;;;;;9.70;2.63;;;;;;;;;;5084836;28;20043;-81
2023/07/13 07:57:45;;;;;;;8.40;2.45;;;;;;;;;;5086571;28;20047;-84
2023/07/13 08:00:11;;;;;;;9.10;2.47;;;;;;;;;;5067630;28;20138;-88
2023/07/13 08:02:45;;;;;;;8.10;2.20;;;;;;;;;;5071777;28;20052;-82
2023/07/13 08:05:11;;;;;;;10.95;2.30;;;;;;;;;;5053365;28;20549;-80
2023/07/13 08:07:39;;;;;;;15.60;3.30;;;;;;;;;;5076700;28;20048;-81
2023/07/13 08:13:10;;;;;;;7.80;2.40;;;;;;;;;;5070420;28;20128;-90
2023/07/13 08:15:37;;;;;;;8.38;2.60;;;;;;;;;;5059972;28;20135;-91
2023/07/13 08:18:03;;;;;;;9.90;2.67;;;;;;;;;;5061334;28;20101;-84
2023/07/13 08:20:29;;;;;;;6.13;2.40;;;;;;;;;;5059656;28;20040;-90
2023/07/13 08:22:55;;;;;;;7.57;2.92;;;;;;;;;;5066016;28;20052;-91
2023/07/13 08:25:22;;;;;;;8.15;2.72;;;;;;;;;;5060866;28;20083;-81
2023/07/13 08:27:48;;;;;;;9.80;3.15;;;;;;;;;;5063130;28;20062;-81
2023/07/13 08:30:14;;;;;;;8.02;2.97;;;;;;;;;;5062176;28;20035;-86
2023/07/13 08:32:40;;;;;;;13.90;3.80;;;;;;;;;;5045073;28;20127;-86
2023/07/13 08:35:07;;;;;;;9.30;3.60;;;;;;;;;;5061519;28;20228;-92
2023/07/13 08:37:33;;;;;;;9.80;3.70;;;;;;;;;;5078702;28;20047;-85
2023/07/13 08:40:00;;;;;;;9.90;3.70;;;;;;;;;;5044834;28;20048;-88
2023/07/13 08:42:29;;;;;;;6.65;2.60;;;;;;;;;;5059557;28;20070;-89
2023/07/13 08:45:16;;;;;;;5.75;2.45;;;;;;;;;;5044834;28;20048;-88
2023/07/13 08:47:46;;;;;;;8.02;2.42;;;;;;;;;;5062374;28;20055;-86
2023/07/13 08:50:14;;;;;;;5.88;2.50;;;;;;;;;;5060797;28;20032;-82
2023/07/13 08:52:41;;;;;;;14.05;3.65;;;;;;;;;;5079850;28;20353;-79
2023/07/13 08:55:13;;;;;;;24.95;4.22;;;;;;;;;;5084281;28;20051;-76
2023/07/13 08:57:40;;;;;;;21.10;6.13;;;;;;;;;;5066964;28;20044;-76
2023/07/13 09:00:09;;;;;;;25.30;6.70;;;;;;;;;;5067504;28;20043;-90
2023/07/13 09:02:42;;;;;;;25.92;8.23;;;;;;;;;;5091822;28;20178;-90
2023/07/13 09:05:18;;;;;;;20.20;7.22;;;;;;;;;;5101361;27;20066;-84
2023/07/13 09:08:02;;;;;;;10.15;4.53;;;;;;;;;;5080202;28;20096;-83
2023/07/13 09:10:34;;;;;;;11.52;4.80;;;;;;;;;;5067416;28;20134;-87
2023/07/13 09:13:25;;;;;;;8.75;3.97;;;;;;;;;;5068561;28;20097;-85
2023/07/13 09:15:51;;;;;;;11.35;3.83;;;;;;;;;;5065501;28;20117;-84
2023/07/13 09:18:29;;;;;;;10.93;4.80;;;;;;;;;;5082331;28;20150;-76
2023/07/13 09:20:57;;;;;;;10.60;5.32;;;;;;;;;;5065499;28;20069;-86
2023/07/13 09:23:25;;;;;;;6.68;4.05;;;;;;;;;;5064724;28;20511;-80
2023/07/13 09:25:57;;;;;;;6.30;3.53;;;;;;;;;;5086439;28;20560;-88
2023/07/13 09:28:26;;;;;;;8.25;3.65;;;;;;;;;;5065661;28;20052;-88
2023/07/13 09:30:55;;;;;;;8.18;3.45;;;;;;;;;;5062087;28;20040;-82
2023/07/13 09:33:22;;;;;;;8.63;3.80;;;;;;;;;;5060455;28;20055;-79
2023/07/13 09:35:49;;;;;;;7.28;2.75;;;;;;;;;;5084575;28;20611;-80
2023/07/13 09:38:16;;;;;;;6.95;3.17;;;;;;;;;;5064674;28;20059;-85
2023/07/13 09:40:54;;;;;;;5.53;3.03;;;;;;;;;;5067468;28;20043;-84
2023/07/13 09:43:21;;;;;;;8.18;3.65;;;;;;;;;;5080298;28;20044;-78
2023/07/13 09:45:47;;;;;;;7.28;3.38;;;;;;;;;;5066659;28;20571;-86
2023/07/13 09:48:15;;;;;;;8.35;4.18;;;;;;;;;;5062051;28;20089;-85
2023/07/13 09:50:41;;;;;;;8.73;3.60;;;;;;;;;;5069119;28;20135;-84
2023/07/13 09:53:18;;;;;;;10.10;4.43;;;;;;;;;;5078678;28;20439;-80
2023/07/13 09:55:46;;;;;;;9.07;3.72;;;;;;;;;;5080873;28;20166;-87
2023/07/13 09:58:19;;;;;;;10.70;4.75;;;;;;;;;;5083300;28;20048;-90
2023/07/13 10:01:04;;;;;;;8.32;5.07;;;;;;;;;;5045779;28;20050;-83
2023/07/13 10:03:39;;;;;;;9.13;4.95;;;;;;;;;;5087927;28;20055;-89
2023/07/13 10:06:12;;;;;;;8.13;3.67;;;;;;;;;;5061666;28;20058;-87
2023/07/13 10:08:38;;;;;;;7.07;2.95;;;;;;;;;;5078094;28;20263;-85
2023/07/13 10:11:29;;;;;;;6.95;3.20;;;;;;;;;;5063066;28;20488;-87
2023/07/13 10:14:06;;;;;;;10.40;3.70;;;;;;;;;;5028076;28;20078;-79
2023/07/13 10:16:34;;;;;;;5.18;3.28;;;;;;;;;;5077145;28;20044;-88
2023/07/13 10:19:05;;;;;;;8.02;3.53;;;;;;;;;;5069046;28;20101;-79
2023/07/13 10:21:37;;;;;;;5.93;3.63;;;;;;;;;;5081958;28;20091;-80
2023/07/13 10:24:19;;;;;;;5.15;3.67;;;;;;;;;;5081519;28;20047;-89
2023/07/13 10:27:12;;;;;;;6.70;3.55;;;;;;;;;;5076216;28;20047;-90
2023/07/13 10:29:40;;;;;;;5.95;3.22;;;;;;;;;;5067607;28;20068;-89
2023/07/13 10:32:11;;;;;;;8.63;2.90;;;;;;;;;;5039081;28;20042;-84
2023/07/13 10:34:37;;;;;;;6.68;2.85;;;;;;;;;;5058683;28;20233;-82
2023/07/13 10:37:03;;;;;;;6.25;3.15;;;;;;;;;;5075885;28;20036;-88
2023/07/13 10:39:30;;;;;;;6.10;3.20;;;;;;;;;;5062083;28;20083;-79
2023/07/13 10:42:00;;;;;;;7.95;3.20;;;;;;;;;;5056963;28;20099;-80
2023/07/13 10:44:30;;;;;;;5.28;2.75;;;;;;;;;;5076384;28;20044;-85
2023/07/13 10:46:58;;;;;;;4.80;2.38;;;;;;;;;;5078329;28;20101;-85
2023/07/13 10:49:24;;;;;;;6.82;2.80;;;;;;;;;;5080092;28;20039;-82
2023/07/13 10:51:51;;;;;;;6.53;2.63;;;;;;;;;;5078687;28;20042;-81
2023/07/13 10:54:21;;;;;;;4.65;2.70;;;;;;;;;;5078574;28;20043;-83
2023/07/13 10:56:49;;;;;;;5.22;3.10;;;;;;;;;;5060455;28;20051;-84
2023/07/13 10:59:18;;;;;;;6.00;2.60;;;;;;;;;;5061894;28;20149;-82
2023/07/13 11:01:44;;;;;;;;;;;;;;;;;;5068633;28;20126;-85
2023/07/13 11:04:14;;;;;;;3.97;2.80;;;;;;;;;;5045122;28;19927;-84
2023/07/13 11:06:44;;;;;;;5.25;2.70;;;;;;;;;;5065135;28;20057;-86
2023/07/13 11:09:22;;;;;;;4.50;2.50;;;;;;;;;;5083370;28;20564;-84
2023/07/13 11:11:48;;;;;;;;;;;;;;;;;;5082080;28;20067;-85
2023/07/13 11:14:38;;;;;;;4.35;2.10;;;;;;;;;;5082659;28;19989;-83
2023/07/13 11:17:23;;;;;;;3.83;2.22;;;;;;;;;;5055901;28;20098;-86
2023/07/13 11:19:55;;;;;;;4.10;2.38;;;;;;;;;;5086386;28;20594;-85
2023/07/13 11:22:25;;;;;;;5.47;2.28;;;;;;;;;;5080105;28;20047;-83
2023/07/13 11:24:51;;;;;;;4.70;1.90;;;;;;;;;;5084169;28;20097;-84
2023/07/13 11:27:36;;;;;;;5.10;2.30;;;;;;;;;;5060336;28;20039;-82
2023/07/13 11:30:10;;;;;;;8.70;2.28;;;;;;;;;;5081643;28;20047;-83
2023/07/13 11:32:36;;;;;;;6.07;2.47;;;;;;;;;;5060730;28;20116;-81
2023/07/13 11:35:02;;;;;;;6.97;2.00;;;;;;;;;;5079664;28;20043;-87
2023/07/13 11:37:29;;;;;;;3.38;1.65;;;;;;;;;;5080161;28;20569;-86
2023/07/13 11:39:56;;;;;;;14.45;2.30;;;;;;;;;;5079831;28;20186;-82
2023/07/13 11:42:22;;;;;;;4.60;1.50;;;;;;;;;;5070700;28;20483;-86
2023/07/13 11:44:49;;;;;;;4.65;1.63;;;;;;;;;;5048483;28;20048;-85
2023/07/13 11:47:20;;;;;;;3.67;1.40;;;;;;;;;;5070424;28;20036;-84
2023/07/13 11:49:56;;;;;;;5.63;1.27;;;;;;;;;;5080379;28;20310;-82
2023/07/13 11:52:36;;;;;;;5.85;1.70;;;;;;;;;;5077456;28;20036;-85
2023/07/13 11:55:16;;;;;;;6.53;1.80;;;;;;;;;;5076814;28;20101;-86
2023/07/13 11:57:45;;;;;;;6.38;1.25;;;;;;;;;;5072257;28;20085;-85
2023/07/13 12:00:14;;;;;;;5.63;1.75;;;;;;;;;;5073151;28;20110;-82
2023/07/13 12:02:43;;;;;;;6.20;1.40;;;;;;;;;;5051679;28;20258;-82
2023/07/13 12:05:13;;;;;;;5.85;1.85;;;;;;;;;;5052921;28;20149;-85
2023/07/13 12:07:40;;;;;;;3.67;1.13;;;;;;;;;;5070853;28;20036;-85
2023/07/13 12:10:09;;;;;;;5.72;1.50;;;;;;;;;;5073822;28;20044;-82
2023/07/13 12:12:35;;;;;;;3.47;1.40;;;;;;;;;;5070169;28;20047;-86
2023/07/13 12:15:05;;;;;;;6.32;1.90;;;;;;;;;;5073259;28;20054;-78
2023/07/13 12:17:31;;;;;;;5.28;1.60;;;;;;;;;;5075414;28;20044;-83
2023/07/13 12:19:58;;;;;;;8.45;1.50;;;;;;;;;;5074670;28;20620;-87
2023/07/13 12:22:24;;;;;;;5.40;1.40;;;;;;;;;;5078200;28;20040;-88
2023/07/13 12:24:56;;;;;;;5.13;1.40;;;;;;;;;;5076389;28;20051;-87
2023/07/13 12:27:28;;;;;;;3.25;1.13;;;;;;;;;;5077187;28;20044;-81
2023/07/13 12:29:57;;;;;;;8.38;1.23;;;;;;;;;;5078378;28;20044;-83
2023/07/13 12:32:25;;;;;;;4.03;1.50;;;;;;;;;;5056626;28;20603;-87
2023/07/13 12:35:14;;;;;;;6.63;1.55;;;;;;;;;;5078481;28;20051;-81
2023/07/13 12:37:42;;;;;;;4.70;1.30;;;;;;;;;;5030867;28;20052;-87
2023/07/13 12:40:24;;;;;;;6.45;1.73;;;;;;;;;;5061279;28;20476;-85
2023/07/13 12:42:52;;;;;;;4.60;1.27;;;;;;;;;;5075893;28;20082;-80
2023/07/13 12:45:18;;;;;;;2.70;1.20;;;;;;;;;;5058954;28;20043;-81
2023/07/13 12:47:47;;;;;;;3.78;1.25;;;;;;;;;;5075697;28;20080;-82
2023/07/13 12:50:21;;;;;;;4.97;1.63;;;;;;;;;;5075033;28;20044;-81
2023/07/13 12:52:52;;;;;;;7.20;1.52;;;;;;;;;;5076035;28;20032;-79
2023/07/13 12:55:20;;;;;;;4.72;1.00;;;;;;;;;;5076649;28;20079;-80
2023/07/13 12:57:50;;;;;;;6.03;1.10;;;;;;;;;;5040899;28;20133;-80
2023/07/13 13:00:19;;;;;;;2.88;1.10;;;;;;;;;;5081319;28;20039;-80
2023/07/13 13:02:45;;;;;;;3.35;1.02;;;;;;;;;;5069768;28;20028;-80
2023/07/13 13:05:14;;;;;;;3.95;1.73;;;;;;;;;;5039648;28;20109;-79
2023/07/13 13:07:40;;;;;;;3.65;1.13;;;;;;;;;;5038305;28;20090;-80
2023/07/13 13:10:14;;;;;;;9.13;1.23;;;;;;;;;;5039614;28;20048;-80
2023/07/13 13:12:42;;;;;;;6.82;1.48;;;;;;;;;;5054786;28;20048;-81
2023/07/13 13:15:08;;;;;;;;;;;;;;;;;;5057450;28;20052;-81
2023/07/13 13:17:35;;;;;;;4.30;1.20;;;;;;;;;;5072069;28;20059;-79
2023/07/13 13:20:02;;;;;;;6.27;1.57;;;;;;;;;;5073003;28;20516;-80
2023/07/13 13:22:28;;;;;;;6.80;1.42;;;;;;;;;;5069408;28;20220;-79
2023/07/13 13:24:54;;;;;;;3.22;1.08;;;;;;;;;;5055106;28;20123;-80
2023/07/13 13:27:21;;;;;;;2.83;1.15;;;;;;;;;;5038757;28;20052;-80
2023/07/13 13:29:50;;;;;;;6.30;1.35;;;;;;;;;;5050915;28;20131;-79
2023/07/13 13:32:16;;;;;;;6.72;1.40;;;;;;;;;;5072015;28;20055;-81
2023/07/13 13:34:42;;;;;;;6.72;1.23;;;;;;;;;;5072247;28;20113;-80
2023/07/13 13:37:17;;;;;;;5.25;1.48;;;;;;;;;;5082133;28;20044;-80
2023/07/13 13:39:44;;;;;;;4.68;1.27;;;;;;;;;;5056771;28;20043;-80
2023/07/13 13:42:10;;;;;;;5.55;1.55;;;;;;;;;;5063480;28;20036;-79
2023/07/13 13:44:37;;;;;;;3.90;1.27;;;;;;;;;;5076759;28;20632;-79
2023/07/13 13:47:03;;;;;;;2.63;0.95;;;;;;;;;;5043960;28;20081;-79
2023/07/13 13:49:30;;;;;;;4.10;1.10;;;;;;;;;;5061751;28;20089;-79
2023/07/13 13:51:57;;;;;;;3.50;1.23;;;;;;;;;;5060300;28;20754;-80
2023/07/13 13:54:25;;;;;;;3.35;1.10;;;;;;;;;;5056820;28;20135;-79
2023/07/13 13:56:52;;;;;;;5.47;1.27;;;;;;;;;;5082167;28;20407;-80
2023/07/13 13:59:18;;;;;;;4.60;1.10;;;;;;;;;;5075164;28;20040;-79
2023/07/13 14:01:45;;;;;;;3.53;1.35;;;;;;;;;;5049075;28;20058;-79
2023/07/13 14:04:21;;;;;;;4.03;1.15;;;;;;;;;;5082570;28;20051;-80
2023/07/13 14:06:48;;;;;;;5.93;1.17;;;;;;;;;;5071923;28;20633;-81
2023/07/13 14:09:18;;;;;;;5.43;1.30;;;;;;;;;;5049007;28;20044;-79
2023/07/13 14:11:46;;;;;;;4.03;1.40;;;;;;;;;;5078514;28;20589;-81
2023/07/13 14:14:30;;;;;;;2.60;1.02;;;;;;;;;;5083200;28;20050;-79
2023/07/13 14:16:57;;;;;;;3.78;1.00;;;;;;;;;;5080706;28;20104;-79
2023/07/13 14:19:23;;;;;;;4.45;1.27;;;;;;;;;;5062058;28;20060;-79
2023/07/13 14:21:49;;;;;;;6.57;1.20;;;;;;;;;;5080979;28;20495;-79
2023/07/13 14:24:16;;;;;;;5.28;1.67;;;;;;;;;;5084789;28;20070;-80
2023/07/13 14:26:42;;;;;;;6.40;1.70;;;;;;;;;;5074563;28;20140;-79
2023/07/13 14:29:13;;;;;;;3.13;1.20;;;;;;;;;;5077561;28;20048;-80
2023/07/13 14:31:39;;;;;;;2.90;1.08;;;;;;;;;;5076577;28;20040;-81
2023/07/13 14:34:05;;;;;;;5.07;1.20;;;;;;;;;;5082216;28;20042;-80
2023/07/13 14:36:37;;;;;;;3.90;1.20;;;;;;;;;;5061181;28;20041;-80
2023/07/13 14:39:12;;;;;;;4.07;1.30;;;;;;;;;;5048514;28;20055;-80
2023/07/13 14:41:38;;;;;;;8.25;1.08;;;;;;;;;;5066960;28;20074;-81
2023/07/13 14:44:14;;;;;;;9.02;1.48;;;;;;;;;;5078205;28;20028;-79